Time;durP1;ratioP1;P1;durP2;ratioP2;P2;SDS_P1;SDS_P2;PMS_P1;PMS_P2;Temp;Humidity;BMP_temperature;BMP_pressure;BME280_temperature;BME280_humidity;BME280_pressure;Samples;Min_cycle;Max_cycle;Signal;HPM_P1;HPM_P2
2022/01/05 00:02:25;;;;;;;16.30;1.63;;;;;;;;;;5058317;28;20140;-66
2022/01/05 00:04:55;;;;;;;21.77;1.77;;;;;;;;;;5055840;28;20067;-66
2022/01/05 00:07:21;;;;;;;8.88;1.48;;;;;;;;;;5058783;28;20077;-66
2022/01/05 00:09:48;;;;;;;7.88;1.50;;;;;;;;;;5058890;28;20076;-66
2022/01/05 00:12:15;;;;;;;19.90;1.60;;;;;;;;;;5054535;28;20135;-66
2022/01/05 00:14:43;;;;;;;8.35;1.60;;;;;;;;;;5058443;28;20098;-66
2022/01/05 00:17:09;;;;;;;13.43;1.60;;;;;;;;;;5058245;28;20084;-66
2022/01/05 00:19:36;;;;;;;8.75;1.50;;;;;;;;;;5063345;28;20579;-66
2022/01/05 00:22:09;;;;;;;12.10;1.60;;;;;;;;;;5057869;28;20139;-66
2022/01/05 00:24:36;;;;;;;14.98;3.03;;;;;;;;;;5059464;28;20085;-66
2022/01/05 00:27:03;;;;;;;15.52;1.58;;;;;;;;;;5059723;28;20094;-66
2022/01/05 00:29:30;;;;;;;11.65;1.60;;;;;;;;;;5058559;28;20045;-66
2022/01/05 00:31:57;;;;;;;6.28;1.33;;;;;;;;;;5057422;28;20041;-66
2022/01/05 00:34:23;;;;;;;7.90;1.88;;;;;;;;;;5057742;28;20049;-67
2022/01/05 00:36:50;;;;;;;10.18;1.50;;;;;;;;;;5057524;28;20151;-66
2022/01/05 00:39:16;;;;;;;6.25;1.15;;;;;;;;;;5062026;28;20080;-66
2022/01/05 00:41:42;;;;;;;4.20;1.27;;;;;;;;;;5060969;28;20051;-66
2022/01/05 00:44:16;;;;;;;3.80;1.50;;;;;;;;;;5059308;28;20083;-66
2022/01/05 00:46:42;;;;;;;5.25;1.20;;;;;;;;;;5061161;28;20075;-66
2022/01/05 00:49:09;;;;;;;3.13;1.20;;;;;;;;;;5053035;28;20060;-66
2022/01/05 00:51:35;;;;;;;3.15;1.40;;;;;;;;;;5058373;28;20091;-66
2022/01/05 00:54:01;;;;;;;4.93;1.23;;;;;;;;;;5061528;28;20135;-66
2022/01/05 00:56:28;;;;;;;1.70;1.05;;;;;;;;;;5061285;28;20048;-67
2022/01/05 00:58:58;;;;;;;3.08;1.17;;;;;;;;;;5054678;28;20052;-66
2022/01/05 01:01:24;;;;;;;2.30;1.02;;;;;;;;;;5058779;28;20504;-66
2022/01/05 01:03:51;;;;;;;2.57;1.20;;;;;;;;;;5053271;28;20068;-66
2022/01/05 01:06:31;;;;;;;2.60;1.27;;;;;;;;;;5041637;28;20753;-66
2022/01/05 01:08:57;;;;;;;2.08;1.20;;;;;;;;;;5043169;28;20128;-66
2022/01/05 01:11:25;;;;;;;3.20;0.75;;;;;;;;;;5040822;28;20092;-66
2022/01/05 01:13:51;;;;;;;2.93;0.80;;;;;;;;;;5045559;28;20076;-65
2022/01/05 01:16:18;;;;;;;4.88;1.10;;;;;;;;;;5036217;28;20084;-66
2022/01/05 01:18:47;;;;;;;1.48;0.85;;;;;;;;;;5043388;28;20046;-66
2022/01/05 01:21:13;;;;;;;4.07;1.20;;;;;;;;;;5043404;28;20480;-66
2022/01/05 01:23:42;;;;;;;1.83;1.08;;;;;;;;;;5042066;28;20048;-66
2022/01/05 01:26:10;;;;;;;4.13;1.20;;;;;;;;;;5043108;28;20068;-66
2022/01/05 01:28:37;;;;;;;3.35;1.40;;;;;;;;;;5042404;28;20127;-66
2022/01/05 01:31:03;;;;;;;4.25;1.40;;;;;;;;;;5038803;28;20136;-66
2022/01/05 01:33:30;;;;;;;4.88;1.17;;;;;;;;;;5042369;28;20051;-66
2022/01/05 01:35:56;;;;;;;3.42;1.25;;;;;;;;;;5045311;28;20510;-66
2022/01/05 01:38:23;;;;;;;1.00;0.90;;;;;;;;;;5040279;28;20632;-66
2022/01/05 01:40:51;;;;;;;2.50;1.08;;;;;;;;;;5041081;28;20052;-66
2022/01/05 01:43:18;;;;;;;5.47;1.23;;;;;;;;;;5040885;28;20132;-66
2022/01/05 01:45:44;;;;;;;4.30;1.42;;;;;;;;;;5046953;28;20135;-66
2022/01/05 01:48:14;;;;;;;3.15;1.83;;;;;;;;;;5041103;28;20060;-66
2022/01/05 01:50:40;;;;;;;3.53;1.40;;;;;;;;;;5040937;28;20166;-66
2022/01/05 01:53:07;;;;;;;5.53;1.38;;;;;;;;;;5036470;28;20135;-66
2022/01/05 01:55:35;;;;;;;4.95;1.42;;;;;;;;;;5038883;28;20212;-66
2022/01/05 01:58:01;;;;;;;3.58;1.42;;;;;;;;;;5035113;28;20496;-66
2022/01/05 02:00:29;;;;;;;7.10;1.40;;;;;;;;;;5038836;28;20136;-66
2022/01/05 02:03:02;;;;;;;6.60;1.80;;;;;;;;;;5039162;27;20128;-66
2022/01/05 02:05:28;;;;;;;6.35;1.60;;;;;;;;;;5038762;28;20111;-66
2022/01/05 02:07:55;;;;;;;5.75;1.80;;;;;;;;;;5038948;28;20132;-66
2022/01/05 02:10:21;;;;;;;5.30;1.85;;;;;;;;;;5039020;28;20595;-66
2022/01/05 02:12:50;;;;;;;12.73;2.50;;;;;;;;;;5035733;28;20142;-66
2022/01/05 02:15:16;;;;;;;6.97;2.20;;;;;;;;;;5036848;28;20060;-66
2022/01/05 02:17:57;;;;;;;12.43;2.47;;;;;;;;;;5042660;28;20052;-66
2022/01/05 02:20:26;;;;;;;9.85;2.50;;;;;;;;;;5043781;28;20152;-66
2022/01/05 02:23:00;;;;;;;13.52;2.10;;;;;;;;;;5040153;28;20129;-66
2022/01/05 02:25:27;;;;;;;13.40;2.75;;;;;;;;;;5045543;28;20053;-66
2022/01/05 02:27:55;;;;;;;12.10;2.38;;;;;;;;;;5040167;28;20049;-66
2022/01/05 02:30:28;;;;;;;17.60;2.30;;;;;;;;;;5040447;28;20556;-66
2022/01/05 02:32:55;;;;;;;19.15;2.63;;;;;;;;;;5035322;28;20042;-66
2022/01/05 02:35:22;;;;;;;17.90;2.30;;;;;;;;;;5041575;28;20129;-66
2022/01/05 02:37:52;;;;;;;10.10;1.95;;;;;;;;;;5042760;28;20139;-66
2022/01/05 02:40:19;;;;;;;14.52;2.20;;;;;;;;;;5039872;28;20050;-66
2022/01/05 02:42:46;;;;;;;15.98;2.28;;;;;;;;;;5040644;28;20131;-66
2022/01/05 02:45:13;;;;;;;20.42;2.60;;;;;;;;;;5038628;28;20115;-66
2022/01/05 02:47:40;;;;;;;9.00;2.35;;;;;;;;;;5037340;28;20060;-66
2022/01/05 02:50:09;;;;;;;19.35;2.20;;;;;;;;;;5040384;28;20088;-66
2022/01/05 02:52:35;;;;;;;18.90;3.55;;;;;;;;;;5038317;28;20477;-66
2022/01/05 02:55:03;;;;;;;23.60;2.97;;;;;;;;;;5040080;28;20087;-66
2022/01/05 02:57:29;;;;;;;22.45;2.90;;;;;;;;;;5036700;28;20573;-66
2022/01/05 03:00:04;;;;;;;18.08;3.00;;;;;;;;;;5037724;28;20079;-66
2022/01/05 03:02:30;;;;;;;17.92;2.78;;;;;;;;;;5036885;28;20501;-66
2022/01/05 03:05:04;;;;;;;12.13;2.42;;;;;;;;;;5059360;28;20110;-66
2022/01/05 03:07:32;;;;;;;17.05;2.58;;;;;;;;;;5059236;28;20083;-67
2022/01/05 03:09:58;;;;;;;17.95;2.70;;;;;;;;;;5058630;28;20139;-66
2022/01/05 03:12:25;;;;;;;18.77;2.72;;;;;;;;;;5052943;28;20555;-66
2022/01/05 03:14:52;;;;;;;16.38;2.30;;;;;;;;;;5059557;28;20072;-66
2022/01/05 03:17:18;;;;;;;16.75;2.65;;;;;;;;;;5059400;28;20563;-66
2022/01/05 03:19:45;;;;;;;14.63;2.40;;;;;;;;;;5062665;28;20171;-66
2022/01/05 03:22:18;;;;;;;25.60;2.60;;;;;;;;;;5059598;28;20079;-66
2022/01/05 03:24:44;;;;;;;23.08;3.42;;;;;;;;;;5057030;28;20049;-66
2022/01/05 03:27:10;;;;;;;14.48;3.22;;;;;;;;;;5063031;28;20140;-66
2022/01/05 03:29:44;;;;;;;26.80;3.03;;;;;;;;;;5061258;28;20040;-66
2022/01/05 03:32:10;;;;;;;12.05;2.20;;;;;;;;;;5058936;28;20139;-66
2022/01/05 03:34:38;;;;;;;15.00;2.25;;;;;;;;;;5057307;28;20563;-66
2022/01/05 03:37:06;;;;;;;17.25;2.03;;;;;;;;;;5054554;28;20083;-66
2022/01/05 03:39:32;;;;;;;21.20;2.08;;;;;;;;;;5055425;28;20143;-66
2022/01/05 03:41:59;;;;;;;9.38;1.85;;;;;;;;;;5058518;28;20106;-66
2022/01/05 03:44:27;;;;;;;23.17;2.70;;;;;;;;;;5071242;28;20523;-66
2022/01/05 03:46:54;;;;;;;17.70;2.17;;;;;;;;;;5080400;28;20711;-66
2022/01/05 03:49:20;;;;;;;13.90;2.83;;;;;;;;;;5078994;28;20127;-66
2022/01/05 03:51:47;;;;;;;25.93;3.10;;;;;;;;;;5081076;28;20155;-66
2022/01/05 03:54:13;;;;;;;21.23;2.28;;;;;;;;;;5078711;28;20061;-67
2022/01/05 03:56:39;;;;;;;26.08;2.45;;;;;;;;;;5077302;28;20147;-66
2022/01/05 03:59:13;;;;;;;19.85;2.10;;;;;;;;;;5081288;28;20159;-66
2022/01/05 04:01:39;;;;;;;21.33;2.45;;;;;;;;;;5077678;28;20052;-66
2022/01/05 04:04:06;;;;;;;20.48;2.15;;;;;;;;;;5075450;28;20063;-66
2022/01/05 04:06:32;;;;;;;8.47;1.53;;;;;;;;;;5078563;28;20085;-66
2022/01/05 04:08:59;;;;;;;9.33;1.80;;;;;;;;;;5077882;28;20515;-66
2022/01/05 04:11:25;;;;;;;11.88;2.20;;;;;;;;;;5079197;28;20702;-66
2022/01/05 04:13:52;;;;;;;14.77;2.07;;;;;;;;;;5073217;28;20484;-66
2022/01/05 04:16:18;;;;;;;17.35;2.20;;;;;;;;;;5080537;28;20051;-66
2022/01/05 04:18:44;;;;;;;13.55;2.50;;;;;;;;;;5071561;28;20056;-66
2022/01/05 04:21:13;;;;;;;8.23;2.20;;;;;;;;;;5078733;28;20420;-66
2022/01/05 04:23:40;;;;;;;14.05;2.60;;;;;;;;;;5079916;28;20130;-66
2022/01/05 04:26:06;;;;;;;12.30;2.20;;;;;;;;;;5074081;28;20135;-66
2022/01/05 04:28:35;;;;;;;14.68;2.85;;;;;;;;;;5075507;28;20132;-66
2022/01/05 04:31:01;;;;;;;5.73;1.73;;;;;;;;;;5079152;28;20052;-66
2022/01/05 04:33:28;;;;;;;18.83;2.53;;;;;;;;;;5078130;28;20394;-66
2022/01/05 04:36:16;;;;;;;;;;;;;;;;;;5080151;28;20048;-66
2022/01/05 04:38:43;;;;;;;12.00;2.70;;;;;;;;;;5083649;28;20013;-66
2022/01/05 04:41:09;;;;;;;12.50;2.33;;;;;;;;;;5079235;28;20056;-66
2022/01/05 04:43:36;;;;;;;16.83;2.60;;;;;;;;;;5086455;28;20136;-66
2022/01/05 04:46:02;;;;;;;12.68;2.72;;;;;;;;;;5077701;28;20087;-66
2022/01/05 04:48:29;;;;;;;13.67;2.70;;;;;;;;;;5089486;28;20127;-66
2022/01/05 04:50:56;;;;;;;16.57;3.37;;;;;;;;;;5083105;28;20538;-66
2022/01/05 04:53:22;;;;;;;12.05;3.33;;;;;;;;;;5078362;28;20130;-66
2022/01/05 04:55:48;;;;;;;15.75;3.70;;;;;;;;;;5082292;28;20127;-66
2022/01/05 04:58:15;;;;;;;19.08;3.88;;;;;;;;;;5084178;28;20132;-66
2022/01/05 05:00:42;;;;;;;10.05;3.22;;;;;;;;;;5083905;28;20568;-66
2022/01/05 05:03:17;;;;;;;23.77;3.30;;;;;;;;;;5064817;28;20056;-66
2022/01/05 05:05:44;;;;;;;22.13;4.43;;;;;;;;;;5082620;28;20048;-66
2022/01/05 05:08:10;;;;;;;19.90;4.10;;;;;;;;;;5082637;28;20495;-66
2022/01/05 05:10:37;;;;;;;15.13;4.50;;;;;;;;;;5079965;28;20127;-66
2022/01/05 05:13:11;;;;;;;10.75;2.60;;;;;;;;;;5080442;28;20091;-66
2022/01/05 05:15:38;;;;;;;19.63;3.97;;;;;;;;;;5083586;28;20134;-66
2022/01/05 05:18:05;;;;;;;11.40;3.45;;;;;;;;;;5081670;28;20091;-66
2022/01/05 05:20:32;;;;;;;13.90;3.30;;;;;;;;;;5085394;28;20147;-66
2022/01/05 05:22:59;;;;;;;23.85;3.55;;;;;;;;;;5080694;28;20552;-66
2022/01/05 05:25:26;;;;;;;12.80;2.65;;;;;;;;;;5083109;28;20066;-66
2022/01/05 05:27:52;;;;;;;14.02;3.83;;;;;;;;;;5078785;28;20047;-66
2022/01/05 05:30:32;;;;;;;17.63;3.50;;;;;;;;;;5078984;28;20117;-66
2022/01/05 05:33:01;;;;;;;11.73;3.40;;;;;;;;;;5082555;28;20464;-66
2022/01/05 05:35:28;;;;;;;16.02;3.40;;;;;;;;;;5074636;28;20143;-66
2022/01/05 05:37:55;;;;;;;17.37;3.67;;;;;;;;;;5079295;28;20053;-66
2022/01/05 05:40:23;;;;;;;22.13;3.67;;;;;;;;;;5080095;28;20143;-66
2022/01/05 05:42:50;;;;;;;161.93;7.47;;;;;;;;;;5079704;28;20480;-67
2022/01/05 05:45:16;;;;;;;21.25;3.13;;;;;;;;;;5080138;28;20115;-66
2022/01/05 05:47:45;;;;;;;22.58;3.30;;;;;;;;;;5081061;28;20036;-66
2022/01/05 05:50:11;;;;;;;24.08;4.75;;;;;;;;;;5080894;28;20213;-66
2022/01/05 05:52:38;;;;;;;15.45;3.05;;;;;;;;;;5081390;28;20111;-66
2022/01/05 05:55:07;;;;;;;13.80;3.08;;;;;;;;;;5081074;28;20091;-66
2022/01/05 05:57:40;;;;;;;13.48;2.95;;;;;;;;;;5083624;28;20052;-66
2022/01/05 06:00:07;;;;;;;10.30;2.95;;;;;;;;;;5081363;28;20559;-66
2022/01/05 06:02:34;;;;;;;22.13;3.25;;;;;;;;;;5081354;28;20049;-66
2022/01/05 06:05:02;;;;;;;114.60;6.03;;;;;;;;;;5080059;28;20056;-66
2022/01/05 06:07:28;;;;;;;165.90;7.88;;;;;;;;;;5083875;28;20517;-66
2022/01/05 06:09:55;;;;;;;308.45;12.85;;;;;;;;;;5081097;28;20079;-66
2022/01/05 06:12:21;;;;;;;254.07;10.38;;;;;;;;;;5082057;28;20091;-66
2022/01/05 06:14:47;;;;;;;66.90;4.68;;;;;;;;;;5082217;28;20123;-66
2022/01/05 06:17:21;;;;;;;14.98;2.95;;;;;;;;;;5079081;28;20497;-66
2022/01/05 06:19:47;;;;;;;15.35;3.30;;;;;;;;;;5081827;28;20158;-66
2022/01/05 06:22:13;;;;;;;14.93;3.25;;;;;;;;;;5081789;28;20130;-66
2022/01/05 06:24:42;;;;;;;12.07;2.80;;;;;;;;;;5079967;28;20126;-66
2022/01/05 06:27:09;;;;;;;17.10;2.90;;;;;;;;;;5081522;28;20079;-66
2022/01/05 06:29:36;;;;;;;11.02;2.78;;;;;;;;;;5063263;28;20508;-66
2022/01/05 06:32:03;;;;;;;10.63;2.95;;;;;;;;;;5080292;28;20579;-66
2022/01/05 06:34:30;;;;;;;12.82;3.10;;;;;;;;;;5077376;28;20127;-66
2022/01/05 06:36:57;;;;;;;17.60;3.08;;;;;;;;;;5080093;28;20052;-66
2022/01/05 06:39:30;;;;;;;12.65;2.80;;;;;;;;;;5080248;28;20105;-66
2022/01/05 06:41:56;;;;;;;255.73;11.35;;;;;;;;;;5075988;28;20147;-66
2022/01/05 06:44:23;;;;;;;120.45;5.43;;;;;;;;;;5086665;28;20099;-66
2022/01/05 06:46:49;;;;;;;16.95;2.60;;;;;;;;;;5077362;28;20171;-66
2022/01/05 06:49:16;;;;;;;57.78;4.45;;;;;;;;;;5081621;28;20044;-66
2022/01/05 06:51:42;;;;;;;216.48;8.13;;;;;;;;;;5076773;28;20132;-66
2022/01/05 06:54:15;;;;;;;47.45;3.30;;;;;;;;;;5082563;28;20051;-66
2022/01/05 06:56:41;;;;;;;9.68;2.80;;;;;;;;;;5077294;28;20194;-66
2022/01/05 06:59:08;;;;;;;22.17;3.00;;;;;;;;;;5082399;28;20127;-66
2022/01/05 07:01:34;;;;;;;18.88;3.00;;;;;;;;;;5074726;28;20127;-66
2022/01/05 07:04:02;;;;;;;11.90;2.53;;;;;;;;;;5069772;28;20106;-66
2022/01/05 07:06:28;;;;;;;13.60;2.85;;;;;;;;;;5059743;28;20083;-66
2022/01/05 07:08:55;;;;;;;15.60;2.57;;;;;;;;;;5059544;28;20128;-66
2022/01/05 07:11:21;;;;;;;13.15;2.30;;;;;;;;;;5059496;28;20287;-66
2022/01/05 07:13:48;;;;;;;11.90;2.33;;;;;;;;;;5062354;28;20079;-66
2022/01/05 07:16:21;;;;;;;6.95;1.88;;;;;;;;;;5059404;28;20127;-66
2022/01/05 07:18:48;;;;;;;15.95;2.58;;;;;;;;;;5060456;28;20532;-66
2022/01/05 07:21:14;;;;;;;139.40;6.40;;;;;;;;;;5061583;28;20135;-66
2022/01/05 07:23:48;;;;;;;58.53;4.85;;;;;;;;;;5055942;28;20056;-66
2022/01/05 07:26:14;;;;;;;184.32;9.23;;;;;;;;;;5062497;28;20084;-66
2022/01/05 07:28:41;;;;;;;9.30;2.05;;;;;;;;;;5058542;28;20056;-66
2022/01/05 07:31:07;;;;;;;7.43;2.20;;;;;;;;;;5057857;28;20141;-66
2022/01/05 07:33:36;;;;;;;6.60;1.80;;;;;;;;;;5057689;28;20456;-66
2022/01/05 07:36:02;;;;;;;16.90;2.60;;;;;;;;;;5056671;28;20143;-66
2022/01/05 07:38:29;;;;;;;11.70;2.60;;;;;;;;;;5059471;28;20132;-66
2022/01/05 07:40:55;;;;;;;12.43;2.30;;;;;;;;;;5057678;28;20162;-66
2022/01/05 07:43:22;;;;;;;72.25;3.53;;;;;;;;;;5058559;28;20087;-66
2022/01/05 07:45:49;;;;;;;83.40;4.15;;;;;;;;;;5055523;28;20132;-66
2022/01/05 07:48:16;;;;;;;61.28;3.67;;;;;;;;;;5058885;28;20050;-66
2022/01/05 07:50:42;;;;;;;30.73;3.20;;;;;;;;;;5056748;28;20095;-66
2022/01/05 07:53:08;;;;;;;9.15;2.67;;;;;;;;;;5063648;28;20063;-66
2022/01/05 07:55:36;;;;;;;98.10;4.70;;;;;;;;;;5058497;28;20091;-66
2022/01/05 07:58:02;;;;;;;298.95;10.32;;;;;;;;;;5056155;28;20579;-66
2022/01/05 08:00:33;;;;;;;65.70;3.90;;;;;;;;;;5063266;28;20519;-66
2022/01/05 08:03:00;;;;;;;5.53;1.90;;;;;;;;;;5057140;28;20053;-66
2022/01/05 08:05:27;;;;;;;27.27;2.83;;;;;;;;;;5054197;28;20064;-66
2022/01/05 08:07:54;;;;;;;12.55;2.25;;;;;;;;;;5056708;28;20052;-66
2022/01/05 08:10:20;;;;;;;8.50;2.30;;;;;;;;;;5057515;28;20053;-66
2022/01/05 08:12:47;;;;;;;12.68;2.78;;;;;;;;;;5038454;28;20137;-66
2022/01/05 08:15:15;;;;;;;8.85;2.85;;;;;;;;;;5055728;28;20076;-66
2022/01/05 08:17:42;;;;;;;11.90;3.58;;;;;;;;;;5061007;28;20696;-66
2022/01/05 08:20:12;;;;;;;11.15;2.88;;;;;;;;;;5061461;28;20076;-66
2022/01/05 08:22:40;;;;;;;9.35;2.67;;;;;;;;;;5059864;28;20135;-66
2022/01/05 08:25:08;;;;;;;11.52;2.70;;;;;;;;;;5053877;28;20131;-66
2022/01/05 08:27:34;;;;;;;;;;;;;;;;;;5058072;28;20151;-66
2022/01/05 08:30:04;;;;;;;7.28;2.35;;;;;;;;;;5053809;28;20047;-66
2022/01/05 08:32:31;;;;;;;9.18;2.33;;;;;;;;;;5058841;28;20076;-66
2022/01/05 08:34:58;;;;;;;18.80;3.67;;;;;;;;;;5053015;28;20077;-66
2022/01/05 08:37:25;;;;;;;9.43;2.90;;;;;;;;;;5056303;28;20064;-66
2022/01/05 08:39:53;;;;;;;11.02;3.33;;;;;;;;;;5058101;28;20079;-66
2022/01/05 08:42:19;;;;;;;11.38;3.97;;;;;;;;;;5057442;28;20132;-66
2022/01/05 08:44:45;;;;;;;19.27;3.92;;;;;;;;;;5061175;28;20098;-66
2022/01/05 08:47:12;;;;;;;14.35;3.92;;;;;;;;;;5059896;28;20059;-66
2022/01/05 08:49:38;;;;;;;38.78;5.40;;;;;;;;;;5054592;28;20124;-66
2022/01/05 08:52:12;;;;;;;25.48;4.97;;;;;;;;;;5060463;28;20139;-66
2022/01/05 08:54:38;;;;;;;78.93;6.47;;;;;;;;;;5058289;28;20053;-66
2022/01/05 08:57:05;;;;;;;46.38;5.85;;;;;;;;;;5056130;28;20414;-66
2022/01/05 08:59:33;;;;;;;50.75;6.13;;;;;;;;;;5057928;28;20075;-66
2022/01/05 09:01:59;;;;;;;113.53;9.30;;;;;;;;;;5057162;28;20144;-66
2022/01/05 09:04:26;;;;;;;56.70;6.67;;;;;;;;;;5043910;28;20123;-66
2022/01/05 09:06:53;;;;;;;80.38;7.10;;;;;;;;;;5037910;28;20080;-66
2022/01/05 09:09:20;;;;;;;168.20;10.65;;;;;;;;;;5035161;28;20131;-66
2022/01/05 09:11:46;;;;;;;91.18;8.57;;;;;;;;;;5039712;28;20124;-66
2022/01/05 09:14:20;;;;;;;50.70;6.80;;;;;;;;;;5031961;28;20137;-66
2022/01/05 09:16:46;;;;;;;72.18;7.35;;;;;;;;;;5038565;28;21576;-66
2022/01/05 09:19:13;;;;;;;31.20;6.10;;;;;;;;;;5033449;28;20060;-66
2022/01/05 09:21:49;;;;;;;23.15;5.35;;;;;;;;;;5037027;28;20140;-66
2022/01/05 09:24:36;;;;;;;34.97;6.47;;;;;;;;;;5039011;28;20059;-66
2022/01/05 09:27:05;;;;;;;31.42;6.18;;;;;;;;;;5039343;28;20438;-66
2022/01/05 09:29:39;;;;;;;25.83;7.00;;;;;;;;;;5023179;28;20060;-66
2022/01/05 09:32:08;;;;;;;26.17;7.10;;;;;;;;;;5041324;28;20037;-66
2022/01/05 09:34:36;;;;;;;29.38;7.00;;;;;;;;;;5039940;28;20568;-66
2022/01/05 09:37:13;;;;;;;33.50;8.50;;;;;;;;;;5046915;28;20049;-66
2022/01/05 09:42:32;;;;;;;47.13;8.98;;;;;;;;;;5041715;28;20080;-66
2022/01/05 09:44:59;;;;;;;30.00;7.93;;;;;;;;;;5041408;28;20049;-66
2022/01/05 09:47:43;;;;;;;30.60;6.93;;;;;;;;;;5038886;28;20310;-66
2022/01/05 09:50:13;;;;;;;20.75;5.35;;;;;;;;;;5044159;28;20129;-66
2022/01/05 09:52:43;;;;;;;20.65;4.90;;;;;;;;;;5036915;28;20136;-66
2022/01/05 09:55:11;;;;;;;19.55;4.88;;;;;;;;;;5040359;28;20139;-66
2022/01/05 09:57:42;;;;;;;22.05;4.70;;;;;;;;;;5036289;28;20505;-66
2022/01/05 10:00:10;;;;;;;13.98;4.30;;;;;;;;;;5037864;28;20160;-66
2022/01/05 10:02:37;;;;;;;29.80;5.15;;;;;;;;;;5036592;28;20132;-66
2022/01/05 10:05:07;;;;;;;23.70;5.85;;;;;;;;;;5065402;28;20052;-66
2022/01/05 10:07:34;;;;;;;34.90;6.97;;;;;;;;;;5060054;28;20068;-66
2022/01/05 10:10:01;;;;;;;42.88;7.20;;;;;;;;;;5059103;28;20115;-66
2022/01/05 10:12:27;;;;;;;53.88;7.32;;;;;;;;;;5060945;28;20077;-66
2022/01/05 10:14:54;;;;;;;33.22;6.50;;;;;;;;;;5057866;28;20579;-66
2022/01/05 10:17:24;;;;;;;58.75;6.43;;;;;;;;;;5059421;28;20484;-66
2022/01/05 10:19:59;;;;;;;59.45;5.95;;;;;;;;;;5062140;28;20610;-66
2022/01/05 10:22:27;;;;;;;18.75;5.60;;;;;;;;;;5057006;28;20560;-66
2022/01/05 10:24:56;;;;;;;35.35;5.53;;;;;;;;;;5058877;28;20079;-66
2022/01/05 10:27:23;;;;;;;14.82;4.28;;;;;;;;;;5061241;28;20477;-66
2022/01/05 10:29:57;;;;;;;20.15;4.35;;;;;;;;;;5061874;28;20048;-66
2022/01/05 10:32:25;;;;;;;32.38;5.68;;;;;;;;;;5063852;28;20449;-66
2022/01/05 10:35:02;;;;;;;14.55;5.43;;;;;;;;;;5060519;28;20123;-66
2022/01/05 10:37:28;;;;;;;21.23;5.93;;;;;;;;;;5052461;28;20128;-66
2022/01/05 10:40:04;;;;;;;38.80;8.23;;;;;;;;;;5054521;28;20086;-66
2022/01/05 10:42:32;;;;;;;34.33;6.28;;;;;;;;;;5061271;28;20133;-67
2022/01/05 10:44:58;;;;;;;;;;;;;;;;;;5058989;28;20135;-66
2022/01/05 10:47:25;;;;;;;16.85;5.88;;;;;;;;;;5059866;28;20463;-66
2022/01/05 10:49:52;;;;;;;9.95;4.55;;;;;;;;;;5059822;28;20090;-66
2022/01/05 10:52:33;;;;;;;14.50;4.38;;;;;;;;;;5059590;28;20076;-66
2022/01/05 10:55:16;;;;;;;22.27;3.78;;;;;;;;;;5061566;28;20481;-66
2022/01/05 10:57:54;;;;;;;10.82;3.25;;;;;;;;;;5059085;28;20095;-66
2022/01/05 11:00:33;;;;;;;10.00;3.90;;;;;;;;;;5061946;28;20095;-66
2022/01/05 11:03:00;;;;;;;13.10;3.40;;;;;;;;;;5061576;28;20084;-66
2022/01/05 11:05:27;;;;;;;13.50;3.30;;;;;;;;;;5041346;28;20041;-66
2022/01/05 11:08:06;;;;;;;13.02;3.45;;;;;;;;;;5042917;28;20482;-66
2022/01/05 11:10:32;;;;;;;8.48;3.08;;;;;;;;;;5041617;28;20483;-66
2022/01/05 11:13:02;;;;;;;15.88;3.45;;;;;;;;;;5037409;28;20053;-66
2022/01/05 11:15:31;;;;;;;9.02;3.28;;;;;;;;;;5039194;28;20458;-66
2022/01/05 11:18:04;;;;;;;14.40;3.28;;;;;;;;;;5037801;28;20128;-66
2022/01/05 11:20:30;;;;;;;14.23;3.33;;;;;;;;;;5039456;28;20139;-66
2022/01/05 11:22:57;;;;;;;11.25;3.13;;;;;;;;;;5039580;28;20132;-66
2022/01/05 11:25:24;;;;;;;10.32;3.10;;;;;;;;;;5041735;28;20084;-66
2022/01/05 11:27:50;;;;;;;13.02;3.00;;;;;;;;;;5036798;28;20149;-66
2022/01/05 11:30:17;;;;;;;12.52;3.10;;;;;;;;;;5037826;28;20114;-66
2022/01/05 11:32:46;;;;;;;8.00;2.88;;;;;;;;;;5040812;28;20133;-66
2022/01/05 11:35:13;;;;;;;8.38;2.80;;;;;;;;;;5039118;28;20085;-66
2022/01/05 11:37:39;;;;;;;12.80;3.03;;;;;;;;;;5042354;28;20120;-66
2022/01/05 11:40:13;;;;;;;7.32;2.78;;;;;;;;;;5037682;28;20132;-66
2022/01/05 11:42:41;;;;;;;10.52;2.85;;;;;;;;;;5037705;28;20056;-66
2022/01/05 11:45:08;;;;;;;9.93;2.50;;;;;;;;;;5038720;28;20081;-66
2022/01/05 11:47:35;;;;;;;11.32;2.85;;;;;;;;;;5042422;28;20123;-66
2022/01/05 11:50:17;;;;;;;10.00;2.72;;;;;;;;;;5034903;28;20125;-66
2022/01/05 11:52:54;;;;;;;10.65;3.03;;;;;;;;;;5036974;28;20076;-66
2022/01/05 11:55:20;;;;;;;9.13;3.58;;;;;;;;;;5038305;28;20484;-66
2022/01/05 11:58:05;;;;;;;16.63;3.80;;;;;;;;;;5036257;28;20477;-66
2022/01/05 12:00:32;;;;;;;13.65;4.35;;;;;;;;;;5029813;28;20481;-66
2022/01/05 12:03:00;;;;;;;14.18;2.90;;;;;;;;;;5035785;28;20620;-66
2022/01/05 12:05:27;;;;;;;7.90;2.75;;;;;;;;;;5057762;28;20057;-66
2022/01/05 12:07:55;;;;;;;11.32;2.83;;;;;;;;;;5057352;28;20076;-66
2022/01/05 12:10:22;;;;;;;12.07;2.80;;;;;;;;;;5057025;28;20044;-66
2022/01/05 12:12:53;;;;;;;9.10;2.67;;;;;;;;;;5053927;28;20073;-66
2022/01/05 12:15:38;;;;;;;10.77;2.70;;;;;;;;;;5059353;28;20080;-66
2022/01/05 12:18:05;;;;;;;14.98;3.22;;;;;;;;;;5055930;28;20236;-66
2022/01/05 12:20:35;;;;;;;8.90;2.13;;;;;;;;;;5059643;28;20139;-66
2022/01/05 12:23:24;;;;;;;6.28;2.97;;;;;;;;;;5060310;28;20143;-66
2022/01/05 12:26:01;;;;;;;13.27;3.70;;;;;;;;;;5062877;28;20078;-66
2022/01/05 12:28:28;;;;;;;9.70;2.90;;;;;;;;;;5060007;28;20084;-66
2022/01/05 12:30:55;;;;;;;6.78;2.80;;;;;;;;;;5059590;28;20370;-66
2022/01/05 12:33:21;;;;;;;8.45;2.92;;;;;;;;;;5056513;28;20536;-66
2022/01/05 12:36:06;;;;;;;14.63;3.60;;;;;;;;;;5050038;28;20069;-66
2022/01/05 12:38:41;;;;;;;13.05;2.83;;;;;;;;;;5060708;28;20151;-66
2022/01/05 12:41:26;;;;;;;9.93;2.90;;;;;;;;;;5057803;28;20141;-66
2022/01/05 12:43:54;;;;;;;6.72;2.75;;;;;;;;;;5053707;28;20084;-66
2022/01/05 12:46:32;;;;;;;8.35;2.75;;;;;;;;;;5055094;28;20072;-66
2022/01/05 12:49:00;;;;;;;12.00;3.08;;;;;;;;;;5056021;28;20063;-66
2022/01/05 12:51:44;;;;;;;7.47;2.05;;;;;;;;;;5060038;28;20096;-66
2022/01/05 12:54:18;;;;;;;4.55;2.22;;;;;;;;;;5057988;28;20076;-66
2022/01/05 12:56:46;;;;;;;4.75;2.08;;;;;;;;;;5058914;28;20060;-66
2022/01/05 12:59:29;;;;;;;8.52;2.47;;;;;;;;;;5061805;28;20156;-66
2022/01/05 13:02:07;;;;;;;4.38;2.13;;;;;;;;;;5063879;28;20055;-66
2022/01/05 13:04:34;;;;;;;4.85;2.30;;;;;;;;;;5066389;28;20110;-66
2022/01/05 13:07:03;;;;;;;8.32;2.78;;;;;;;;;;5067050;28;20045;-66
2022/01/05 13:09:31;;;;;;;6.20;2.10;;;;;;;;;;5063318;28;20075;-66
2022/01/05 13:12:03;;;;;;;8.77;2.45;;;;;;;;;;5066859;28;20572;-66
2022/01/05 13:14:33;;;;;;;4.57;2.40;;;;;;;;;;5065606;28;20045;-66
2022/01/05 13:17:05;;;;;;;4.75;2.60;;;;;;;;;;5062765;28;20053;-66
2022/01/05 13:19:33;;;;;;;7.80;2.60;;;;;;;;;;5061030;28;20079;-66
2022/01/05 13:22:03;;;;;;;6.65;2.88;;;;;;;;;;5054665;28;20131;-66
2022/01/05 13:24:41;;;;;;;6.75;2.80;;;;;;;;;;5060784;28;20485;-66
2022/01/05 13:27:16;;;;;;;9.00;3.20;;;;;;;;;;5062768;28;20129;-66
2022/01/05 13:29:42;;;;;;;5.78;2.47;;;;;;;;;;5060609;28;20080;-66
2022/01/05 13:32:13;;;;;;;9.63;3.30;;;;;;;;;;5061040;28;20076;-66
2022/01/05 13:34:47;;;;;;;5.47;2.70;;;;;;;;;;5059316;28;20140;-66
2022/01/05 13:37:34;;;;;;;8.40;2.70;;;;;;;;;;5058441;28;20147;-66
2022/01/05 13:40:05;;;;;;;6.10;2.72;;;;;;;;;;5062463;28;20045;-66
2022/01/05 13:42:33;;;;;;;8.85;2.80;;;;;;;;;;5063709;28;20135;-66
2022/01/05 13:45:00;;;;;;;7.60;3.00;;;;;;;;;;5040709;28;20131;-65
2022/01/05 13:47:29;;;;;;;6.13;2.75;;;;;;;;;;5066494;28;20136;-66
2022/01/05 13:50:22;;;;;;;6.57;2.55;;;;;;;;;;5057348;28;20072;-65
2022/01/05 13:52:54;;;;;;;5.72;2.05;;;;;;;;;;5055268;28;20045;-65
2022/01/05 13:55:26;;;;;;;5.88;2.03;;;;;;;;;;5062732;28;20480;-66
2022/01/05 13:58:06;;;;;;;3.10;1.77;;;;;;;;;;5063139;28;20048;-65
2022/01/05 14:00:33;;;;;;;3.38;1.80;;;;;;;;;;5060040;28;20073;-65
2022/01/05 14:03:07;;;;;;;7.88;2.35;;;;;;;;;;5054578;28;20120;-65
2022/01/05 14:05:34;;;;;;;4.03;1.30;;;;;;;;;;5057125;28;20092;-66
2022/01/05 14:08:05;;;;;;;5.80;1.63;;;;;;;;;;5057434;28;20135;-66
2022/01/05 14:10:35;;;;;;;4.55;1.35;;;;;;;;;;5053592;28;20118;-66
2022/01/05 14:13:06;;;;;;;3.03;1.60;;;;;;;;;;5056501;28;20144;-65
2022/01/05 14:15:33;;;;;;;5.18;1.75;;;;;;;;;;5054060;28;20080;-65
2022/01/05 14:18:05;;;;;;;6.82;2.00;;;;;;;;;;5058242;28;20140;-65
2022/01/05 14:20:32;;;;;;;3.05;1.70;;;;;;;;;;5055609;28;20136;-65
2022/01/05 14:23:07;;;;;;;4.65;1.83;;;;;;;;;;5060127;28;20049;-65
2022/01/05 14:25:52;;;;;;;4.03;1.77;;;;;;;;;;5060794;28;20084;-66
2022/01/05 14:28:34;;;;;;;2.15;1.60;;;;;;;;;;5054865;28;20080;-65
2022/01/05 14:31:02;;;;;;;1.77;1.27;;;;;;;;;;5059017;28;20135;-66
2022/01/05 14:33:42;;;;;;;5.03;1.65;;;;;;;;;;5052253;28;20499;-65
2022/01/05 14:36:19;;;;;;;4.13;1.67;;;;;;;;;;5059263;28;20083;-65
2022/01/05 14:38:59;;;;;;;4.82;1.33;;;;;;;;;;5063049;28;20140;-65
2022/01/05 14:41:31;;;;;;;4.20;1.65;;;;;;;;;;5059714;28;20167;-65
2022/01/05 14:44:16;;;;;;;1.50;1.20;;;;;;;;;;5055936;28;20207;-65
2022/01/05 14:46:44;;;;;;;2.88;1.30;;;;;;;;;;5050267;28;20139;-65
2022/01/05 14:49:11;;;;;;;4.50;1.58;;;;;;;;;;5053503;28;20049;-65
2022/01/05 14:51:39;;;;;;;4.35;1.40;;;;;;;;;;5048183;28;20048;-65